Irving South's Hourly Summary for Wednesday, May 9, 2018
Hour Temp
(f)
RH
(%)
Solar Rad.
(MJ/m2)
Rainfall
(in)
Wind
(mph)
5/9/2018 12:00 AM 75 50 0 0 1.03
5/9/2018 1:00 AM 74 52 0 0 1.53
5/9/2018 2:00 AM 74 46 0 0 4.22
5/9/2018 3:00 AM 73 47 0 0 5.06
5/9/2018 4:00 AM 71 50 0 0 5.27
5/9/2018 5:00 AM 70 46 0 0 4.98
5/9/2018 6:00 AM 70 46 0 0 4.57
5/9/2018 7:00 AM 68 50 0.02 0 4.16
5/9/2018 8:00 AM 67 60 0.13 0 3.81
5/9/2018 9:00 AM 68 58 0.96 0 3.49
5/9/2018 10:00 AM 72 55 1.98 0 3.43
5/9/2018 11:00 AM 75 50 2.65 0 3.83
5/9/2018 12:00 PM 77 49 2.95 0 3.74
5/9/2018 1:00 PM 80 38 3.38 0 5.03
5/9/2018 2:00 PM 82 36 3.65 0 6.4
5/9/2018 3:00 PM 84 34 3.44 0 6.31
5/9/2018 4:00 PM 85 34 3.03 0 5.96
5/9/2018 5:00 PM 86 32 2.31 0 5.5
5/9/2018 6:00 PM 85 31 1.8 0 5.59
5/9/2018 7:00 PM 85 32 0.61 0 4.12
5/9/2018 8:00 PM 82 35 0.24 0 2.24
5/9/2018 9:00 PM 78 40 0.01 0 0.3
5/9/2018 10:00 PM 76 47 0 0 0.09
5/9/2018 11:00 PM 74 49 0 0 0.15
Data Summary 76 44 27.16 0.00 3.78